Time;durP1;ratioP1;P1;durP2;ratioP2;P2;SDS_P1;SDS_P2;PMS_P1;PMS_P2;Temp;Humidity;BMP_temperature;BMP_pressure;BME280_temperature;BME280_humidity;BME280_pressure;Samples;Min_cycle;Max_cycle;Signal;HPM_P1;HPM_P2
2021/11/20 00:01:33;;;;;;;935.40;871.40;;;;;;;18.77;58.55;101794.22;5046788;28;20056;-34
2021/11/20 00:04:00;;;;;;;949.58;884.35;;;;;;;18.80;58.51;101799.31;5055765;28;20017;-34
2021/11/20 00:06:33;;;;;;;1001.40;931.13;;;;;;;18.78;58.11;101799.44;5068258;28;20029;-34
2021/11/20 00:08:59;;;;;;;951.85;886.53;;;;;;;18.82;57.89;101793.91;5069721;28;20063;-34
2021/11/20 00:11:27;;;;;;;985.25;917.38;;;;;;;18.77;58.06;101786.25;5053228;28;20029;-36
2021/11/20 00:13:53;;;;;;;928.65;865.97;;;;;;;18.80;58.19;101783.34;5053464;28;20021;-36
2021/11/20 00:16:20;;;;;;;990.13;921.30;;;;;;;18.74;58.16;101776.69;5035522;28;20065;-36
2021/11/20 00:18:47;;;;;;;967.10;899.20;;;;;;;18.77;57.71;101780.91;5054414;28;20037;-36
2021/11/20 00:21:20;;;;;;;973.38;904.30;;;;;;;18.76;57.75;101776.53;5052140;28;20447;-36
2021/11/20 00:23:49;;;;;;;992.78;921.22;;;;;;;18.75;57.84;101781.03;5050296;28;20017;-36
2021/11/20 00:26:17;;;;;;;913.22;849.90;;;;;;;18.77;57.89;101778.25;5050677;28;20056;-37
2021/11/20 00:31:26;;;;;;;936.28;871.08;;;;;;;18.83;57.24;101768.97;5062282;28;20033;-36
2021/11/20 00:33:52;;;;;;;940.30;875.22;;;;;;;18.82;57.61;101765.47;5056192;28;20110;-36
2021/11/20 00:36:20;;;;;;;1018.92;947.15;;;;;;;18.79;57.46;101761.19;5056559;28;20028;-36
2021/11/20 00:38:46;;;;;;;978.00;910.28;;;;;;;18.80;57.29;101762.06;5056435;28;20048;-36
2021/11/20 00:41:15;;;;;;;993.25;922.38;;;;;;;18.78;57.54;101764.00;5055754;28;20463;-36
2021/11/20 00:43:42;;;;;;;1003.10;932.08;;;;;;;18.73;57.37;101756.38;5055372;28;20024;-36
2021/11/20 00:46:09;;;;;;;983.05;913.17;;;;;;;18.75;57.56;101759.75;5055145;28;20062;-36
2021/11/20 00:48:35;;;;;;;992.72;923.03;;;;;;;18.76;57.52;101768.56;5056227;28;20355;-36
2021/11/20 00:51:04;;;;;;;995.35;924.72;;;;;;;18.74;57.50;101765.19;5055721;28;20348;-36
2021/11/20 00:53:31;;;;;;;1004.33;933.85;;;;;;;18.75;57.25;101759.75;5056089;28;20032;-36
2021/11/20 00:55:57;;;;;;;946.42;881.72;;;;;;;18.75;57.47;101766.88;5056132;28;20021;-36
2021/11/20 00:58:24;;;;;;;937.33;873.22;;;;;;;18.65;57.19;101752.59;5054801;28;20059;-36
2021/11/20 01:00:54;;;;;;;991.63;921.90;;;;;;;18.76;57.35;101768.56;5059853;28;20068;-36
2021/11/20 01:03:20;;;;;;;941.70;877.03;;;;;;;18.77;57.17;101773.78;5055388;28;20013;-35
2021/11/20 01:05:46;;;;;;;996.20;925.95;;;;;;;18.78;57.28;101780.81;5055253;28;20025;-35
2021/11/20 01:08:14;;;;;;;997.83;924.97;;;;;;;18.77;57.32;101780.91;5055171;28;20033;-35
2021/11/20 01:10:43;;;;;;;991.83;921.95;;;;;;;18.75;57.04;101774.88;5055247;28;20029;-35
2021/11/20 01:13:10;;;;;;;955.33;888.42;;;;;;;18.76;57.26;101774.75;5055361;28;20033;-35
2021/11/20 01:15:48;;;;;;;958.85;891.97;;;;;;;18.73;56.98;101772.31;5054912;28;20070;-35
2021/11/20 01:18:15;;;;;;;975.72;906.95;;;;;;;18.74;57.16;101783.81;5053425;28;20033;-36
2021/11/20 01:20:42;;;;;;;996.85;926.72;;;;;;;18.72;57.20;101780.44;5042067;28;20485;-35
2021/11/20 01:23:08;;;;;;;982.20;913.67;;;;;;;18.67;56.77;101778.13;5054764;28;20029;-35
2021/11/20 01:25:35;;;;;;;984.42;914.45;;;;;;;18.72;57.17;101786.59;5054540;28;20029;-35
2021/11/20 01:28:01;;;;;;;1000.38;929.03;;;;;;;18.74;57.23;101790.00;5055660;28;20454;-35
2021/11/20 01:30:28;;;;;;;986.78;917.78;;;;;;;18.75;56.98;101789.00;5054960;28;20029;-35
2021/11/20 01:32:54;;;;;;;983.78;913.85;;;;;;;18.75;57.09;101788.19;5055179;28;20021;-35
2021/11/20 01:35:21;;;;;;;1009.83;938.80;;;;;;;18.76;56.83;101789.84;5054203;28;20040;-35
2021/11/20 01:37:47;;;;;;;975.25;907.35;;;;;;;18.75;56.90;101790.84;5055302;28;20148;-35
2021/11/20 01:40:16;;;;;;;959.58;892.92;;;;;;;18.72;57.05;101789.25;5053870;28;20025;-35
2021/11/20 01:42:43;;;;;;;1001.70;929.75;;;;;;;18.75;56.68;101791.69;5053941;28;20098;-35
2021/11/20 01:45:23;;;;;;;987.25;917.22;;;;;;;18.74;57.20;101797.13;5055159;28;20029;-35
2021/11/20 01:47:57;;;;;;;937.40;873.83;;;;;;;18.73;56.97;101796.28;5049570;28;20463;-35
2021/11/20 01:50:31;;;;;;;977.53;910.17;;;;;;;18.73;56.82;101798.94;5054326;28;20048;-35
2021/11/20 01:53:38;;;;;;;960.72;895.53;;;;;;;18.75;56.91;101799.66;5049365;28;20436;-35
2021/11/20 01:56:20;;;;;;;918.65;856.60;;;;;;;18.78;57.03;101803.91;5054659;28;20060;-35
2021/11/20 01:59:06;;;;;;;936.55;873.28;;;;;;;18.79;56.81;101797.59;5035709;28;20029;-35
2021/11/20 02:01:36;;;;;;;963.60;898.13;;;;;;;18.75;56.74;101796.16;5054190;28;20021;-36
2021/11/20 02:04:17;;;;;;;976.80;908.58;;;;;;;18.74;56.91;101800.66;5038170;28;20013;-35
2021/11/20 02:07:03;;;;;;;942.15;877.95;;;;;;;18.74;56.75;101795.31;5068832;28;20029;-36
2021/11/20 02:09:35;;;;;;;920.05;859.47;;;;;;;18.74;56.63;101805.97;5047796;28;20459;-35
2021/11/20 02:12:13;;;;;;;965.22;899.63;;;;;;;18.74;56.96;101811.28;5052881;28;20443;-35
2021/11/20 02:14:40;;;;;;;920.28;858.67;;;;;;;18.76;56.57;101808.47;5053539;28;20036;-35
2021/11/20 02:17:21;;;;;;;972.95;904.95;;;;;;;18.74;56.79;101815.75;5037022;28;20044;-35
2021/11/20 02:19:50;;;;;;;976.75;908.63;;;;;;;18.75;56.54;101814.78;5050812;28;20041;-36
2021/11/20 02:22:35;;;;;;;979.10;910.85;;;;;;;18.76;56.66;101816.47;5057829;28;20029;-35
2021/11/20 02:25:01;;;;;;;972.88;905.60;;;;;;;18.76;56.60;101813.81;5049102;28;20108;-36
2021/11/20 02:27:28;;;;;;;942.90;877.85;;;;;;;18.75;56.90;101807.63;5047640;28;20246;-35
2021/11/20 02:30:37;;;;;;;954.28;888.90;;;;;;;18.80;56.85;101816.13;5050444;28;20052;-36
2021/11/20 02:33:14;;;;;;;949.30;885.80;;;;;;;18.64;56.55;101790.84;5012989;28;20148;-36
2021/11/20 02:35:48;;;;;;;916.17;854.75;;;;;;;18.74;56.63;101818.41;5051522;28;20098;-35
2021/11/20 02:38:42;;;;;;;979.42;911.53;;;;;;;18.73;56.79;101825.53;5054048;28;20033;-36
2021/11/20 02:41:09;;;;;;;952.10;887.20;;;;;;;18.75;56.40;101820.09;5042875;28;20041;-35
2021/11/20 02:43:37;;;;;;;982.92;914.90;;;;;;;18.73;56.66;101822.88;5052188;28;20051;-35
2021/11/20 02:46:03;;;;;;;956.70;890.38;;;;;;;18.76;57.00;101821.78;5049369;28;20032;-35
2021/11/20 02:48:30;;;;;;;910.45;847.28;;;;;;;18.91;56.61;101828.63;5042234;28;20107;-35
2021/11/20 02:51:06;;;;;;;943.83;878.45;;;;;;;18.91;56.84;101825.13;5052753;28;20028;-35
2021/11/20 02:53:34;;;;;;;911.10;849.35;;;;;;;19.00;56.42;101832.38;5060368;28;20078;-35
2021/11/20 02:56:00;;;;;;;954.35;889.08;;;;;;;18.93;56.70;101828.50;5064198;28;20090;-35
2021/11/20 02:58:27;;;;;;;985.67;915.58;;;;;;;18.87;56.46;101823.69;5056612;28;20472;-35
2021/11/20 03:01:01;;;;;;;963.17;894.85;;;;;;;18.84;57.09;101831.88;5059861;28;20028;-36
2021/11/20 03:03:27;;;;;;;939.72;874.88;;;;;;;18.85;57.00;101828.25;5051407;28;20035;-36
2021/11/20 03:05:53;;;;;;;937.38;872.50;;;;;;;18.85;57.01;101828.25;5071760;28;20151;-35
2021/11/20 03:08:19;;;;;;;969.63;902.78;;;;;;;18.90;56.87;101826.06;5059947;28;20025;-35
2021/11/20 03:10:46;;;;;;;973.90;905.58;;;;;;;18.98;56.79;101832.50;5057035;28;20032;-35
2021/11/20 03:13:13;;;;;;;938.10;873.22;;;;;;;18.97;56.63;101828.16;5055422;28;20363;-35
2021/11/20 03:15:40;;;;;;;975.92;907.53;;;;;;;18.98;56.61;101834.31;5054478;28;20087;-35
2021/11/20 03:18:06;;;;;;;942.25;878.05;;;;;;;18.87;57.17;101832.50;5052496;28;20094;-35
2021/11/20 03:20:32;;;;;;;973.38;905.38;;;;;;;18.88;57.26;101834.19;5073695;28;20391;-35
2021/11/20 03:23:09;;;;;;;974.40;906.28;;;;;;;18.87;57.14;101844.97;5056006;28;20025;-35
2021/11/20 03:25:35;;;;;;;965.03;897.97;;;;;;;18.99;56.99;101844.00;5053390;28;20021;-35
2021/11/20 03:28:01;;;;;;;955.58;889.40;;;;;;;18.97;57.44;101852.13;5056334;28;20443;-36
2021/11/20 03:30:27;;;;;;;969.28;901.65;;;;;;;18.91;57.45;101860.56;5052080;28;20512;-35
2021/11/20 03:32:54;;;;;;;986.47;916.85;;;;;;;19.06;56.96;101855.88;5044505;28;20061;-35
2021/11/20 03:35:20;;;;;;;950.85;884.00;;;;;;;19.08;57.31;101856.59;5056936;28;20078;-35
2021/11/20 03:37:46;;;;;;;946.08;880.47;;;;;;;19.06;57.29;101860.34;5050300;28;20412;-35
2021/11/20 03:40:13;;;;;;;969.80;900.75;;;;;;;18.80;57.05;101831.25;5056149;28;20036;-35
2021/11/20 03:42:39;;;;;;;984.90;915.50;;;;;;;18.95;57.39;101861.19;5057333;28;20354;-35
2021/11/20 03:45:06;;;;;;;997.83;927.92;;;;;;;18.94;57.52;101859.50;5057140;28;20033;-35
2021/11/20 03:47:33;;;;;;;1010.53;938.40;;;;;;;18.94;57.57;101863.00;5057591;28;20040;-35
2021/11/20 03:49:59;;;;;;;973.35;904.05;;;;;;;18.94;57.64;101860.34;5056566;28;20026;-35
2021/11/20 03:52:27;;;;;;;970.13;902.92;;;;;;;18.93;57.40;101855.13;5055371;28;20025;-35
2021/11/20 03:54:53;;;;;;;956.38;889.00;;;;;;;18.92;58.00;101859.63;5045733;28;20033;-35
2021/11/20 03:57:19;;;;;;;959.55;892.22;;;;;;;19.08;57.55;101861.06;5055553;28;20027;-35
2021/11/20 03:59:48;;;;;;;961.28;893.38;;;;;;;19.07;57.52;101870.88;5055369;28;20025;-35
2021/11/20 04:02:14;;;;;;;957.75;890.00;;;;;;;19.13;57.37;101866.88;5051272;28;20071;-35
2021/11/20 04:04:40;;;;;;;1024.78;949.83;;;;;;;19.12;57.39;101878.50;5072227;28;20029;-35
2021/11/20 04:07:07;;;;;;;991.72;921.00;;;;;;;18.98;57.88;101877.75;5054038;28;20029;-35
2021/11/20 04:09:33;;;;;;;991.75;921.55;;;;;;;18.99;57.80;101883.91;5056695;28;20032;-35
2021/11/20 04:11:59;;;;;;;966.88;898.35;;;;;;;19.00;57.58;101888.28;5058918;28;20029;-35
2021/11/20 04:14:26;;;;;;;1018.47;944.63;;;;;;;18.99;57.80;101889.25;5052407;28;20652;-35
2021/11/20 04:16:52;;;;;;;1000.80;929.10;;;;;;;19.07;57.76;101900.16;5050139;28;20037;-35
2021/11/20 04:19:18;;;;;;;966.88;896.53;;;;;;;19.07;57.45;101894.84;5062890;28;20090;-35
2021/11/20 04:21:44;;;;;;;998.83;927.17;;;;;;;19.08;57.42;101885.03;5053849;28;20029;-35
2021/11/20 04:24:11;;;;;;;1005.40;933.47;;;;;;;19.12;57.26;101891.81;5045887;28;20021;-36
2021/11/20 04:26:37;;;;;;;978.35;908.55;;;;;;;19.09;57.62;101892.06;5055343;28;20037;-35
2021/11/20 04:29:03;;;;;;;1014.95;941.83;;;;;;;19.02;57.60;101880.19;5056771;28;20463;-35
2021/11/20 04:31:30;;;;;;;979.42;909.60;;;;;;;19.04;57.57;101886.25;5055137;28;20417;-35
2021/11/20 04:33:56;;;;;;;995.53;923.90;;;;;;;19.03;57.51;101882.75;5055091;28;20489;-35
2021/11/20 04:36:23;;;;;;;974.17;905.42;;;;;;;19.03;57.87;101887.19;5055320;28;20029;-36
2021/11/20 04:38:49;;;;;;;997.25;925.40;;;;;;;19.02;57.77;101896.16;5056234;28;20455;-35
2021/11/20 04:41:15;;;;;;;995.97;924.63;;;;;;;18.99;57.67;101886.59;5056726;28;20042;-35
2021/11/20 04:43:43;;;;;;;1033.45;957.88;;;;;;;19.09;57.83;101898.22;5055553;28;20510;-35
2021/11/20 04:46:09;;;;;;;1018.92;944.33;;;;;;;19.16;57.54;101898.59;5055852;28;20165;-35
2021/11/20 04:48:36;;;;;;;1007.55;935.30;;;;;;;19.08;57.76;101890.34;5055665;28;20083;-35
2021/11/20 04:51:02;;;;;;;1011.53;939.35;;;;;;;19.07;57.90;101891.34;5058099;28;20108;-35
2021/11/20 04:53:29;;;;;;;993.60;922.15;;;;;;;19.04;57.52;101892.41;5054566;28;20043;-35
2021/11/20 04:55:58;;;;;;;1024.97;950.80;;;;;;;19.04;57.75;101889.75;5054943;28;20033;-35
2021/11/20 04:58:27;;;;;;;984.75;915.22;;;;;;;19.03;57.78;101895.19;5055523;28;20044;-35
2021/11/20 05:00:54;;;;;;;981.53;911.80;;;;;;;19.05;57.58;101896.78;5056432;28;20532;-35
2021/11/20 05:03:20;;;;;;;967.55;899.03;;;;;;;19.06;57.86;101895.81;5055753;28;20025;-35
2021/11/20 05:05:47;;;;;;;1002.13;929.05;;;;;;;19.06;57.93;101906.47;5038626;28;20056;-35
2021/11/20 05:08:14;;;;;;;1002.97;931.67;;;;;;;19.12;58.05;101905.97;5042840;28;20024;-35
2021/11/20 05:10:41;;;;;;;1022.33;947.65;;;;;;;19.14;57.62;101909.38;5061126;28;20487;-35
2021/11/20 05:13:07;;;;;;;984.60;913.83;;;;;;;19.08;57.56;101917.84;5065715;28;20450;-35
2021/11/20 05:15:35;;;;;;;1000.28;928.95;;;;;;;19.07;57.57;101907.31;5071079;28;20020;-35
2021/11/20 05:18:01;;;;;;;1030.53;954.78;;;;;;;19.06;58.02;101913.59;5053826;28;20025;-36
2021/11/20 05:20:27;;;;;;;1000.25;929.30;;;;;;;19.06;57.90;101918.91;5055711;28;20328;-35
2021/11/20 05:22:53;;;;;;;1007.10;934.67;;;;;;;19.07;57.96;101917.97;5051230;28;20024;-35
2021/11/20 05:25:21;;;;;;;986.08;915.28;;;;;;;19.06;57.68;101918.91;5048026;28;20036;-35
2021/11/20 05:27:48;;;;;;;978.33;908.75;;;;;;;19.07;57.68;101908.16;5054804;28;20024;-35
2021/11/20 05:30:20;;;;;;;974.88;905.00;;;;;;;19.14;57.94;101905.88;5054873;28;20039;-35
2021/11/20 05:32:47;;;;;;;1002.60;930.88;;;;;;;19.17;57.77;101918.94;5056433;28;20394;-35
2021/11/20 05:35:13;;;;;;;980.58;909.97;;;;;;;19.10;57.65;101917.72;5066569;28;20110;-35
2021/11/20 05:37:39;;;;;;;1014.75;941.95;;;;;;;19.10;57.80;101923.06;5054582;28;20178;-35
2021/11/20 05:40:07;;;;;;;1008.55;934.30;;;;;;;19.01;57.83;101911.28;5051911;28;20032;-35
2021/11/20 05:42:33;;;;;;;992.53;921.88;;;;;;;19.08;57.96;101920.50;5054346;28;20024;-35
2021/11/20 05:44:59;;;;;;;1000.58;928.30;;;;;;;19.07;57.75;101920.63;5053229;28;20032;-35
2021/11/20 05:47:26;;;;;;;1004.42;931.95;;;;;;;19.08;57.87;101924.97;5048651;28;20024;-36
2021/11/20 05:49:52;;;;;;;1014.80;941.38;;;;;;;19.08;57.84;101927.63;5054082;28;20025;-35
2021/11/20 05:52:18;;;;;;;991.13;920.78;;;;;;;19.05;58.23;101920.72;5052137;28;20474;-35
2021/11/20 05:54:44;;;;;;;980.67;911.10;;;;;;;19.10;58.12;101917.72;5052315;28;20528;-35
2021/11/20 05:57:11;;;;;;;1014.35;940.33;;;;;;;19.13;57.87;101914.81;5054470;28;20386;-35
2021/11/20 05:59:38;;;;;;;1014.60;942.35;;;;;;;19.11;57.95;101919.41;5057654;28;20029;-35
2021/11/20 06:02:04;;;;;;;977.17;908.10;;;;;;;19.08;57.94;101920.50;5053797;28;20033;-35
2021/11/20 06:04:31;;;;;;;986.08;915.22;;;;;;;19.07;58.01;101924.13;5049759;28;20094;-35
2021/11/20 06:06:58;;;;;;;992.15;920.90;;;;;;;19.05;57.84;101919.91;5069460;28;20401;-36
2021/11/20 06:09:24;;;;;;;1027.22;953.10;;;;;;;19.07;58.09;101917.97;5058548;28;20040;-35
2021/11/20 06:11:50;;;;;;;1011.33;938.22;;;;;;;19.05;57.70;101915.41;5052591;28;20055;-35
2021/11/20 06:14:17;;;;;;;1003.00;931.17;;;;;;;19.02;57.64;101909.47;5064711;28;20033;-35
2021/11/20 06:16:44;;;;;;;985.85;915.97;;;;;;;19.08;57.73;101903.66;5051957;28;20565;-35
2021/11/20 06:19:11;;;;;;;976.83;907.05;;;;;;;19.10;57.92;101917.72;5049034;28;20029;-35
2021/11/20 06:21:37;;;;;;;991.00;920.42;;;;;;;19.11;58.01;101908.75;5049552;28;20024;-35
2021/11/20 06:24:04;;;;;;;998.97;928.92;;;;;;;19.07;58.29;101910.81;5052926;28;20355;-35
2021/11/20 06:26:31;;;;;;;1004.35;931.38;;;;;;;19.06;57.79;101911.78;5051453;28;20025;-35
2021/11/20 06:28:57;;;;;;;1005.90;933.90;;;;;;;19.06;57.77;101908.25;5050389;28;20026;-35
2021/11/20 06:31:24;;;;;;;1012.60;939.42;;;;;;;19.05;57.99;101910.09;5042550;28;20107;-35
2021/11/20 06:33:51;;;;;;;1002.70;930.40;;;;;;;19.04;57.77;101915.53;5050612;28;20048;-35
2021/11/20 06:36:21;;;;;;;997.35;926.70;;;;;;;19.05;57.79;101925.22;5051233;28;20473;-35
2021/11/20 06:38:47;;;;;;;1018.13;944.60;;;;;;;19.03;57.58;101922.66;5053730;28;20032;-35
2021/11/20 06:41:13;;;;;;;1031.00;956.47;;;;;;;19.05;58.06;101918.06;5037663;28;20521;-35
2021/11/20 06:43:40;;;;;;;1030.85;955.90;;;;;;;19.05;58.05;101925.22;5040415;28;20114;-35
2021/11/20 06:46:09;;;;;;;1016.45;942.67;;;;;;;19.02;57.64;101918.28;5049828;28;20033;-35
2021/11/20 06:48:35;;;;;;;995.28;923.13;;;;;;;19.08;57.86;101924.97;5052838;28;20021;-35
2021/11/20 06:51:02;;;;;;;1000.55;929.63;;;;;;;19.07;57.99;101917.97;5050651;28;20033;-36
2021/11/20 06:53:28;;;;;;;1026.43;950.60;;;;;;;19.07;57.68;101921.47;5042486;28;20030;-35
2021/11/20 06:55:55;;;;;;;1017.13;943.28;;;;;;;19.05;57.57;101917.22;5034233;28;20030;-35
2021/11/20 06:58:42;;;;;;;1000.97;929.70;;;;;;;19.04;57.58;101919.03;5046574;28;20043;-35
2021/11/20 07:01:12;;;;;;;992.35;922.97;;;;;;;19.01;58.02;101927.28;5050753;28;20030;-35
2021/11/20 07:03:51;;;;;;;1006.47;935.53;;;;;;;18.90;57.60;101917.44;5051587;28;20382;-36
2021/11/20 07:06:23;;;;;;;1011.35;939.72;;;;;;;19.00;57.74;101928.22;5068049;28;20028;-35
2021/11/20 07:08:51;;;;;;;995.90;925.15;;;;;;;18.98;58.10;101923.00;5041836;28;20064;-35
2021/11/20 07:11:18;;;;;;;1027.10;952.50;;;;;;;19.06;57.65;101926.91;5069268;28;20028;-35
2021/11/20 07:13:44;;;;;;;982.08;912.28;;;;;;;19.07;57.82;101931.28;5051594;28;20032;-35
2021/11/20 07:16:12;;;;;;;961.88;894.50;;;;;;;19.03;58.02;101925.34;5050124;28;20021;-35
2021/11/20 07:18:41;;;;;;;989.15;918.80;;;;;;;19.02;57.56;101923.63;5042378;28;20025;-35
2021/11/20 07:21:07;;;;;;;981.78;912.40;;;;;;;19.02;57.47;101931.59;5052564;28;20021;-35
2021/11/20 07:23:33;;;;;;;985.60;916.08;;;;;;;19.03;57.70;101937.78;5052029;28;20059;-36
2021/11/20 07:26:00;;;;;;;1017.20;944.42;;;;;;;19.01;57.71;101927.28;5048230;28;20544;-36
2021/11/20 07:28:26;;;;;;;1008.72;936.70;;;;;;;19.02;57.40;101926.28;5053647;28;20399;-35
2021/11/20 07:30:53;;;;;;;1004.95;933.53;;;;;;;19.00;57.20;101933.53;5047233;28;20052;-35
2021/11/20 07:33:19;;;;;;;990.60;920.45;;;;;;;19.04;57.78;101923.50;5051248;28;20032;-35
2021/11/20 07:35:47;;;;;;;1028.15;954.63;;;;;;;19.03;57.79;101937.78;5044141;28;20059;-35
2021/11/20 07:38:16;;;;;;;1007.70;935.47;;;;;;;19.03;57.67;101933.31;5053679;28;20029;-35
2021/11/20 07:40:42;;;;;;;963.20;895.72;;;;;;;19.04;57.73;101931.50;5054776;28;20036;-35
2021/11/20 07:43:10;;;;;;;1002.28;930.35;;;;;;;19.03;57.78;101930.66;5056047;28;20033;-35
2021/11/20 07:45:37;;;;;;;1005.47;932.75;;;;;;;19.02;57.33;101933.44;5052247;28;20021;-35
2021/11/20 07:48:09;;;;;;;1010.45;938.50;;;;;;;18.98;57.69;101928.34;5056144;28;20067;-35
2021/11/20 07:50:38;;;;;;;993.40;923.00;;;;;;;18.98;57.49;101936.31;5054475;28;20021;-35
2021/11/20 07:53:04;;;;;;;991.83;920.78;;;;;;;18.99;57.42;101938.03;5056321;28;20029;-35
2021/11/20 07:55:30;;;;;;;1000.67;929.75;;;;;;;18.99;57.33;101940.69;5046459;28;20043;-35
2021/11/20 07:57:57;;;;;;;992.33;921.63;;;;;;;18.88;57.31;101913.19;5056418;28;20059;-35
2021/11/20 08:00:23;;;;;;;997.47;926.45;;;;;;;19.00;57.30;101931.72;5056622;28;20020;-35
2021/11/20 08:02:49;;;;;;;1017.90;944.88;;;;;;;18.94;57.66;101920.72;5060234;28;20067;-35
2021/11/20 08:05:16;;;;;;;998.67;927.45;;;;;;;19.03;57.28;101922.66;5055553;28;20119;-35
2021/11/20 08:07:42;;;;;;;993.95;922.60;;;;;;;19.01;57.45;101916.63;5052547;28;20032;-35
2021/11/20 08:10:10;;;;;;;1012.25;938.33;;;;;;;19.02;57.75;101928.09;5037462;28;20112;-35
2021/11/20 08:12:36;;;;;;;1019.83;946.65;;;;;;;19.00;57.42;101922.91;5053283;28;20044;-35
2021/11/20 08:15:04;;;;;;;1002.95;930.97;;;;;;;18.98;57.68;101916.84;5055517;28;20032;-35
2021/11/20 08:17:30;;;;;;;986.72;917.05;;;;;;;18.98;57.62;101925.66;5055056;28;20123;-35
2021/11/20 08:19:56;;;;;;;1001.45;930.85;;;;;;;18.98;57.40;101920.34;5048003;28;20025;-35
2021/11/20 08:22:22;;;;;;;995.35;923.38;;;;;;;18.97;57.20;101912.47;5056956;28;20029;-35
2021/11/20 08:24:48;;;;;;;987.88;916.30;;;;;;;18.97;57.30;101907.16;5050682;28;20462;-35
2021/11/20 08:27:15;;;;;;;1007.13;934.70;;;;;;;19.00;57.45;101917.56;5052900;28;20041;-35
2021/11/20 08:29:41;;;;;;;973.78;903.92;;;;;;;19.03;57.53;101919.13;5052069;28;20021;-35
2021/11/20 08:32:08;;;;;;;987.38;917.42;;;;;;;19.04;57.59;101916.38;5055618;28;20035;-35
2021/11/20 08:34:35;;;;;;;999.88;928.15;;;;;;;19.02;57.67;101912.13;5056525;28;20040;-35
2021/11/20 08:37:01;;;;;;;1011.78;939.25;;;;;;;18.88;57.28;101898.06;5053052;28;20029;-35
2021/11/20 08:39:28;;;;;;;1009.67;937.63;;;;;;;18.96;57.34;101922.28;5055904;28;20458;-35
2021/11/20 08:41:54;;;;;;;998.30;926.33;;;;;;;18.97;57.50;101926.66;5055275;28;20112;-35
2021/11/20 08:44:20;;;;;;;999.42;926.35;;;;;;;18.97;57.15;101925.78;5055390;28;20033;-35
2021/11/20 08:46:47;;;;;;;1022.58;947.40;;;;;;;18.96;57.30;101929.44;5054579;28;20020;-35
2021/11/20 08:49:13;;;;;;;1009.95;937.38;;;;;;;18.95;57.16;101933.88;5053155;28;20389;-35
2021/11/20 08:51:40;;;;;;;993.95;922.30;;;;;;;18.89;57.61;101920.22;5053994;28;20025;-35
2021/11/20 08:54:06;;;;;;;1024.93;950.22;;;;;;;18.94;57.42;101934.88;5039023;28;20367;-35
2021/11/20 08:56:39;;;;;;;1019.47;944.65;;;;;;;18.87;57.72;101920.34;5055439;28;20036;-35
2021/11/20 08:59:05;;;;;;;1001.97;929.88;;;;;;;18.98;57.13;101931.00;5050754;28;20116;-35
2021/11/20 09:01:34;;;;;;;1017.55;944.40;;;;;;;18.96;57.16;101930.28;5061521;28;20037;-35
2021/11/20 09:04:49;;;;;;;1008.10;935.13;;;;;;;18.97;56.93;101928.44;5055884;28;20517;-35
2021/11/20 09:07:25;;;;;;;973.80;906.75;;;;;;;18.92;57.13;101933.28;5023385;28;20044;-35
2021/11/20 09:09:51;;;;;;;992.25;921.63;;;;;;;18.94;57.01;101932.22;5055002;28;20025;-35
2021/11/20 09:12:24;;;;;;;997.03;925.78;;;;;;;18.91;57.35;101932.44;5055117;28;20032;-35
2021/11/20 09:14:54;;;;;;;1020.38;947.63;;;;;;;18.92;56.82;101935.94;5053575;28;20024;-35
2021/11/20 09:17:20;;;;;;;1006.00;933.90;;;;;;;18.94;56.84;101937.53;5054044;28;20029;-35
2021/11/20 09:19:47;;;;;;;996.00;925.58;;;;;;;18.93;57.15;101945.63;5053976;28;20040;-35
2021/11/20 09:22:13;;;;;;;1007.97;935.03;;;;;;;18.94;57.30;101944.69;5044050;28;20393;-35
2021/11/20 09:24:40;;;;;;;1011.35;937.88;;;;;;;18.94;57.23;101945.50;5055297;28;20025;-35
2021/11/20 09:27:07;;;;;;;969.10;899.55;;;;;;;18.96;57.00;101946.25;5070457;28;20024;-35
2021/11/20 09:29:34;;;;;;;980.42;911.08;;;;;;;18.97;57.13;101945.28;5043582;28;20029;-35
2021/11/20 09:32:00;;;;;;;1002.95;931.60;;;;;;;18.92;57.10;101939.47;5053515;28;20024;-35
2021/11/20 09:34:26;;;;;;;1013.47;938.70;;;;;;;18.93;56.88;101945.63;5045184;28;20028;-35
2021/11/20 09:36:55;;;;;;;1002.67;930.10;;;;;;;18.91;57.14;101943.09;5052667;28;20032;-35
2021/11/20 09:39:22;;;;;;;1003.88;931.88;;;;;;;18.91;56.98;101951.06;5045424;28;20025;-35
2021/11/20 09:42:06;;;;;;;1002.15;929.10;;;;;;;18.93;56.82;101956.28;5044336;28;20087;-35
2021/11/20 09:44:36;;;;;;;997.97;927.30;;;;;;;18.89;56.66;101958.31;5045364;28;20041;-35
2021/11/20 09:47:17;;;;;;;978.30;908.83;;;;;;;18.86;56.96;101953.22;5053449;28;20025;-35
2021/11/20 09:49:49;;;;;;;997.20;926.63;;;;;;;18.90;57.29;101960.03;5053934;28;20132;-35
2021/11/20 09:52:15;;;;;;;1012.70;941.38;;;;;;;18.94;57.24;101958.81;5053125;28;20475;-35
2021/11/20 09:54:43;;;;;;;967.72;899.13;;;;;;;18.88;57.21;101951.28;5053352;28;20029;-35
2021/11/20 09:57:13;;;;;;;1003.95;931.38;;;;;;;18.91;56.98;101958.22;5060789;28;20082;-36
2021/11/20 09:59:54;;;;;;;1000.88;929.25;;;;;;;18.90;56.85;101960.03;5042834;28;20025;-35
2021/11/20 10:02:45;;;;;;;1009.35;936.10;;;;;;;18.89;57.14;101963.66;5051810;28;20032;-35
2021/11/20 10:05:11;;;;;;;969.08;901.60;;;;;;;18.90;57.03;101962.69;5039854;28;20029;-35
2021/11/20 10:07:49;;;;;;;991.22;922.17;;;;;;;18.88;57.15;101966.41;5051913;28;20029;-35
2021/11/20 10:10:15;;;;;;;993.78;924.42;;;;;;;18.90;56.92;101956.50;5051332;28;20516;-35
2021/11/20 10:13:10;;;;;;;990.45;919.97;;;;;;;18.78;57.04;101940.47;5052657;28;20083;-35
2021/11/20 10:15:58;;;;;;;952.33;887.17;;;;;;;18.84;57.06;101957.81;5043683;28;20041;-35
2021/11/20 10:18:32;;;;;;;970.13;902.90;;;;;;;18.85;57.30;101959.53;5067379;28;20029;-36
2021/11/20 10:21:28;;;;;;;980.03;911.88;;;;;;;18.88;57.14;101953.09;5052732;28;20033;-35
2021/11/20 10:24:25;;;;;;;976.88;909.30;;;;;;;18.90;56.75;101954.72;5052032;28;20052;-35
2021/11/20 10:27:12;;;;;;;998.63;928.42;;;;;;;18.85;56.66;101956.88;5044468;28;20064;-35
2021/11/20 10:30:00;;;;;;;1017.47;945.63;;;;;;;18.86;56.73;101958.53;5054757;28;20032;-35
2021/11/20 10:32:40;;;;;;;988.67;918.28;;;;;;;18.84;56.65;101959.63;5054111;28;20021;-35
2021/11/20 10:35:15;;;;;;;999.15;929.92;;;;;;;18.82;57.14;101965.06;5054051;28;20463;-35
2021/11/20 10:37:54;;;;;;;1010.72;938.67;;;;;;;18.80;56.80;101965.16;5034615;28;20120;-35
2021/11/20 10:40:28;;;;;;;1003.63;933.05;;;;;;;18.79;56.96;101962.59;5052420;28;20056;-35
2021/11/20 10:43:13;;;;;;;994.40;924.53;;;;;;;18.79;56.73;101966.09;5047544;28;20024;-35
2021/11/20 10:45:43;;;;;;;968.47;901.70;;;;;;;18.78;57.23;101963.59;5046236;28;20331;-35
2021/11/20 10:48:24;;;;;;;966.13;899.60;;;;;;;18.82;57.07;101964.22;5053088;28;20115;-35
2021/11/20 10:51:12;;;;;;;951.53;886.10;;;;;;;18.79;56.91;101968.75;5050294;28;20043;-35
2021/11/20 10:53:57;;;;;;;986.50;917.47;;;;;;;18.80;56.72;101964.31;5039142;28;20035;-35
2021/11/20 10:56:41;;;;;;;947.95;883.47;;;;;;;18.79;56.88;101962.59;5020934;28;20402;-35
2021/11/20 10:59:10;;;;;;;927.75;864.42;;;;;;;18.76;56.76;101968.16;5046719;28;20035;-35
2021/11/20 11:01:52;;;;;;;1010.55;938.45;;;;;;;18.75;56.80;101971.78;5052185;28;20033;-35
2021/11/20 11:04:51;;;;;;;1015.60;944.67;;;;;;;18.78;56.97;101972.41;5040072;28;20018;-35
2021/11/20 11:07:37;;;;;;;955.10;889.65;;;;;;;18.76;56.81;101968.16;5069996;28;20029;-35